createdAt,value
2022-09-25T00:01:01.091Z,15.30
2022-09-25T00:03:30.600Z,15.25
2022-09-25T00:06:06.609Z,15.26
2022-09-25T00:08:36.766Z,15.28
2022-09-25T00:11:08.569Z,15.25
2022-09-25T00:13:36.993Z,15.19
2022-09-25T00:16:05.082Z,15.14
2022-09-25T00:18:49.896Z,15.13
2022-09-25T00:21:18.462Z,15.17
2022-09-25T00:23:48.122Z,15.18
2022-09-25T00:26:17.558Z,15.17
2022-09-25T00:28:45.444Z,15.15
2022-09-25T00:31:19.945Z,15.05
2022-09-25T00:33:47.750Z,15.03
2022-09-25T00:36:15.564Z,15.06
2022-09-25T00:38:43.377Z,15.04
2022-09-25T00:41:12.965Z,14.99
2022-09-25T00:43:44.556Z,15.01
2022-09-25T00:46:16.097Z,14.98
2022-09-25T00:48:52.653Z,15.00
2022-09-25T00:51:29.076Z,15.03
2022-09-25T00:54:02.675Z,15.08
2022-09-25T00:56:37.425Z,15.05
2022-09-25T00:59:06.318Z,15.02
2022-09-25T01:01:34.096Z,15.00
2022-09-25T01:04:02.757Z,15.02
2022-09-25T01:06:31.194Z,15.03
2022-09-25T01:09:00.300Z,15.03
2022-09-25T01:11:28.231Z,15.02
2022-09-25T01:13:59.554Z,15.03
2022-09-25T01:16:35.558Z,15.05
2022-09-25T01:19:16.351Z,15.07
2022-09-25T01:21:51.350Z,15.07
2022-09-25T01:24:40.956Z,15.10
2022-09-25T01:27:41.842Z,15.06
2022-09-25T01:30:13.838Z,15.13
2022-09-25T01:32:55.304Z,15.08
2022-09-25T01:35:34.463Z,15.12
2022-09-25T01:38:10.380Z,15.11
2022-09-25T01:40:43.469Z,15.10
2022-09-25T01:43:14.901Z,15.09
2022-09-25T01:45:48.124Z,15.13
2022-09-25T01:48:19.509Z,15.17
2022-09-25T01:50:52.010Z,15.18
2022-09-25T01:53:24.738Z,15.20
2022-09-25T01:55:57.816Z,15.13
2022-09-25T01:58:31.682Z,15.19
2022-09-25T02:01:06.440Z,15.19
2022-09-25T02:03:40.992Z,15.17
2022-09-25T02:06:11.115Z,15.14
2022-09-25T02:08:44.218Z,15.11
2022-09-25T02:11:14.295Z,15.12
2022-09-25T02:13:49.144Z,15.12
2022-09-25T02:16:27.274Z,15.08
2022-09-25T02:19:12.097Z,15.08
2022-09-25T02:21:46.821Z,15.10
2022-09-25T02:24:21.849Z,15.10
2022-09-25T02:26:51.292Z,15.08
2022-09-25T02:29:19.909Z,15.04
2022-09-25T02:31:51.293Z,15.03
2022-09-25T02:34:19.331Z,14.98
2022-09-25T02:36:47.257Z,14.98
2022-09-25T02:39:18.471Z,14.92
2022-09-25T02:41:58.113Z,14.91
2022-09-25T02:44:37.352Z,14.89
2022-09-25T02:47:20.860Z,14.87
2022-09-25T02:49:55.704Z,14.90
2022-09-25T02:52:33.113Z,14.85
2022-09-25T02:55:07.996Z,14.84
2022-09-25T02:57:44.000Z,14.81
2022-09-25T03:00:14.001Z,14.80
2022-09-25T03:02:49.759Z,14.81
2022-09-25T03:05:21.601Z,14.78
2022-09-25T03:08:07.262Z,14.77
2022-09-25T03:10:37.897Z,14.79
2022-09-25T03:13:19.934Z,14.75
2022-09-25T03:15:51.931Z,14.65
2022-09-25T03:18:21.930Z,14.63
2022-09-25T03:20:49.653Z,14.63
2022-09-25T03:23:17.396Z,14.62
2022-09-25T03:25:49.879Z,14.66
2022-09-25T03:28:18.269Z,14.63
2022-09-25T03:30:46.096Z,14.61
2022-09-25T03:33:14.309Z,14.57
2022-09-25T03:35:43.426Z,14.58
2022-09-25T03:38:12.498Z,14.57
2022-09-25T03:40:41.404Z,14.56
2022-09-25T03:45:35.861Z,14.58
2022-09-25T03:48:03.644Z,14.58
2022-09-25T03:50:31.373Z,14.61
2022-09-25T03:53:00.455Z,14.59
2022-09-25T03:55:28.284Z,14.64
2022-09-25T03:57:57.165Z,14.68
2022-09-25T04:00:24.953Z,14.72
2022-09-25T04:02:52.764Z,14.71
2022-09-25T04:05:21.366Z,14.71
2022-09-25T04:07:49.133Z,14.72
2022-09-25T04:10:18.393Z,14.77
2022-09-25T04:12:46.155Z,14.75
2022-09-25T04:15:13.918Z,14.74
2022-09-25T04:17:42.749Z,14.64
2022-09-25T04:20:10.986Z,14.62
2022-09-25T04:22:38.715Z,14.64
2022-09-25T04:25:07.617Z,14.64
2022-09-25T04:27:37.801Z,14.65
2022-09-25T04:30:06.693Z,14.69
2022-09-25T04:32:52.010Z,14.73
2022-09-25T04:35:19.766Z,14.72
2022-09-25T04:37:47.581Z,14.63
2022-09-25T04:40:15.363Z,14.59
2022-09-25T04:42:44.518Z,14.58
2022-09-25T04:45:12.380Z,14.59
2022-09-25T04:47:40.119Z,14.59
2022-09-25T04:50:08.906Z,14.53
2022-09-25T04:52:36.673Z,14.50
2022-09-25T04:55:04.666Z,14.51
2022-09-25T04:57:57.281Z,14.52
2022-09-25T05:00:22.374Z,14.51
2022-09-25T05:02:50.251Z,14.48
2022-09-25T05:05:19.173Z,14.42
2022-09-25T05:07:54.202Z,14.40
2022-09-25T05:10:22.108Z,14.35
2022-09-25T05:12:55.228Z,14.34
2022-09-25T05:15:24.366Z,14.34
2022-09-25T05:17:53.544Z,14.27
2022-09-25T05:20:21.288Z,14.24
2022-09-25T05:22:49.071Z,14.24
2022-09-25T05:25:16.926Z,14.23
2022-09-25T05:27:44.763Z,14.19
2022-09-25T05:30:13.095Z,14.16
2022-09-25T05:32:49.430Z,14.04
2022-09-25T05:35:18.507Z,14.05
2022-09-25T05:37:46.296Z,14.02
2022-09-25T05:40:16.499Z,13.98
2022-09-25T05:42:45.106Z,13.94
2022-09-25T05:45:13.394Z,13.92
2022-09-25T05:47:43.516Z,13.90
2022-09-25T05:50:13.751Z,13.85
2022-09-25T05:52:42.167Z,13.86
2022-09-25T05:55:11.153Z,13.85
2022-09-25T05:57:39.643Z,13.82
2022-09-25T06:00:09.804Z,13.79
2022-09-25T06:02:37.702Z,13.79
2022-09-25T06:05:08.277Z,13.77
2022-09-25T06:07:36.080Z,13.77
2022-09-25T06:10:03.979Z,13.76
2022-09-25T06:12:32.422Z,13.71
2022-09-25T06:15:00.774Z,13.69
2022-09-25T06:17:30.489Z,13.63
2022-09-25T06:19:58.231Z,13.60
2022-09-25T06:22:27.349Z,13.59
2022-09-25T06:24:55.091Z,13.57
2022-09-25T06:27:23.378Z,13.56
2022-09-25T06:29:51.181Z,13.51
2022-09-25T06:32:18.910Z,13.47
2022-09-25T06:34:47.013Z,13.47
2022-09-25T06:37:14.793Z,13.47
2022-09-25T06:39:43.914Z,13.46
2022-09-25T06:42:11.702Z,13.47
2022-09-25T06:44:39.533Z,13.51
2022-09-25T06:47:07.314Z,13.54
2022-09-25T06:49:35.188Z,13.58
2022-09-25T06:52:03.018Z,13.62
2022-09-25T06:54:31.661Z,13.78
2022-09-25T06:57:00.814Z,13.98
2022-09-25T06:59:28.552Z,14.18
2022-09-25T07:02:16.402Z,14.40
2022-09-25T07:04:43.155Z,14.55
2022-09-25T07:07:10.935Z,14.75
2022-09-25T07:09:38.699Z,14.98
2022-09-25T07:12:08.030Z,15.19
2022-09-25T07:14:35.842Z,15.36
2022-09-25T07:17:03.620Z,15.50
2022-09-25T07:19:31.383Z,15.62
2022-09-25T07:21:59.393Z,15.81
2022-09-25T07:24:27.239Z,15.91
2022-09-25T07:26:55.035Z,15.99
2022-09-25T07:29:24.223Z,16.12
2022-09-25T07:31:52.014Z,16.26
2022-09-25T07:34:19.778Z,16.38
2022-09-25T07:36:47.548Z,16.53
2022-09-25T07:39:18.566Z,16.69
2022-09-25T07:41:46.730Z,16.88
2022-09-25T07:44:36.315Z,17.13
2022-09-25T07:47:05.512Z,17.34
2022-09-25T07:49:33.575Z,17.48
2022-09-25T07:52:01.592Z,17.63
2022-09-25T07:54:32.332Z,17.79
2022-09-25T07:57:00.069Z,17.93
2022-09-25T07:59:27.874Z,18.08
2022-09-25T08:01:55.654Z,18.13
2022-09-25T08:04:24.869Z,18.19
2022-09-25T08:06:52.701Z,18.15
2022-09-25T08:09:20.470Z,18.24
2022-09-25T08:11:48.232Z,18.35
2022-09-25T08:14:16.559Z,18.41
2022-09-25T08:16:44.400Z,18.47
2022-09-25T08:19:12.434Z,18.52
2022-09-25T08:21:41.597Z,18.64
2022-09-25T08:24:21.017Z,18.69
2022-09-25T08:26:49.963Z,18.86
2022-09-25T08:29:18.487Z,19.08
2022-09-25T08:31:46.245Z,19.24
2022-09-25T08:34:39.353Z,19.37
2022-09-25T08:37:05.131Z,19.49
2022-09-25T08:39:32.899Z,19.43
2022-09-25T08:42:01.920Z,19.35
2022-09-25T08:44:32.632Z,19.33
2022-09-25T08:47:22.079Z,19.23
2022-09-25T08:49:58.306Z,19.15
2022-09-25T08:52:27.911Z,19.15
2022-09-25T08:54:55.818Z,19.24
2022-09-25T08:57:31.678Z,19.21
2022-09-25T09:00:03.878Z,19.35
2022-09-25T09:02:39.563Z,19.34
2022-09-25T09:05:16.604Z,19.32
2022-09-25T09:07:50.272Z,19.33
2022-09-25T09:10:28.722Z,19.44
2022-09-25T09:13:01.784Z,19.47
2022-09-25T09:15:40.747Z,19.44
2022-09-25T09:18:20.136Z,19.62
2022-09-25T09:20:52.766Z,19.85
2022-09-25T09:23:23.971Z,19.95
2022-09-25T09:26:03.913Z,19.88
2022-09-25T09:29:06.991Z,19.98
2022-09-25T09:31:46.963Z,20.17
2022-09-25T09:35:00.941Z,20.43
2022-09-25T09:37:31.834Z,20.46
2022-09-25T09:40:16.607Z,20.31
2022-09-25T09:42:53.753Z,20.05
2022-09-25T09:45:28.239Z,20.05
2022-09-25T09:48:06.434Z,20.15
2022-09-25T09:50:45.234Z,20.45
2022-09-25T09:53:28.214Z,20.73
2022-09-25T09:56:02.151Z,20.80
2022-09-25T09:58:38.733Z,20.74
2022-09-25T10:01:29.098Z,20.76
2022-09-25T10:04:04.238Z,20.72
2022-09-25T10:06:36.073Z,20.57
2022-09-25T10:09:04.272Z,20.26
2022-09-25T10:11:34.918Z,20.11
2022-09-25T10:14:05.524Z,20.01
2022-09-25T10:16:34.415Z,20.16
2022-09-25T10:19:06.995Z,20.08
2022-09-25T10:21:41.419Z,19.82
2022-09-25T10:24:09.218Z,19.79
2022-09-25T10:26:40.877Z,19.90
2022-09-25T10:29:27.491Z,20.14
2022-09-25T10:32:00.909Z,20.49
2022-09-25T10:34:30.143Z,20.61
2022-09-25T10:36:58.937Z,20.32
2022-09-25T10:39:46.393Z,19.99
2022-09-25T10:42:37.076Z,19.70
2022-09-25T10:45:27.884Z,19.65
2022-09-25T10:48:13.119Z,19.73
2022-09-25T10:50:40.917Z,19.96
2022-09-25T10:53:28.354Z,20.21
2022-09-25T10:56:02.843Z,20.47
2022-09-25T10:58:37.522Z,20.61
2022-09-25T11:01:09.199Z,20.82
2022-09-25T11:03:41.174Z,20.98
2022-09-25T11:06:18.580Z,20.95
2022-09-25T11:08:46.966Z,20.97
2022-09-25T11:11:16.759Z,20.91
2022-09-25T11:13:48.831Z,20.67
2022-09-25T11:16:17.465Z,20.59
2022-09-25T11:18:47.100Z,20.56
2022-09-25T11:21:28.315Z,20.43
2022-09-25T11:24:08.203Z,20.44
2022-09-25T11:26:41.780Z,20.39
2022-09-25T11:29:17.099Z,20.17
2022-09-25T11:31:51.670Z,20.26
2022-09-25T11:34:28.953Z,20.19
2022-09-25T11:37:06.917Z,20.11
2022-09-25T11:39:59.713Z,20.00
2022-09-25T11:42:32.481Z,19.74
2022-09-25T11:45:08.816Z,19.71
2022-09-25T11:47:43.786Z,19.83
2022-09-25T11:50:17.145Z,20.03
2022-09-25T11:52:57.370Z,20.14
2022-09-25T11:55:47.198Z,20.27
2022-09-25T11:58:30.255Z,20.49
2022-09-25T12:01:08.194Z,20.65
2022-09-25T12:03:54.264Z,20.78
2022-09-25T12:06:49.094Z,20.73
2022-09-25T12:09:33.320Z,20.70
2022-09-25T12:12:08.769Z,20.62
2022-09-25T12:14:47.120Z,20.39
2022-09-25T12:17:26.224Z,20.16
2022-09-25T12:20:02.129Z,20.12
2022-09-25T12:22:43.555Z,20.16
2022-09-25T12:25:22.955Z,20.23
2022-09-25T12:27:58.491Z,20.26
2022-09-25T12:30:33.295Z,20.28
2022-09-25T12:33:18.952Z,20.40
2022-09-25T12:35:54.282Z,20.32
2022-09-25T12:38:29.089Z,20.36
2022-09-25T12:41:02.885Z,20.36
2022-09-25T12:43:36.681Z,20.32
2022-09-25T12:46:15.104Z,20.32
2022-09-25T12:48:49.497Z,20.44
2022-09-25T12:51:25.384Z,20.49
2022-09-25T12:53:59.542Z,20.55
2022-09-25T12:56:34.564Z,20.57
2022-09-25T12:59:10.973Z,20.52
2022-09-25T13:01:47.022Z,20.56
2022-09-25T13:04:35.415Z,20.60
2022-09-25T13:07:10.805Z,20.56
2022-09-25T13:09:44.024Z,20.66
2022-09-25T13:12:20.934Z,20.72
2022-09-25T13:14:53.252Z,20.79
2022-09-25T13:17:21.464Z,20.90
2022-09-25T13:19:50.861Z,20.89
2022-09-25T13:22:21.797Z,20.90
2022-09-25T13:24:53.887Z,20.98
2022-09-25T13:27:25.269Z,21.03
2022-09-25T13:29:59.464Z,21.02
2022-09-25T13:32:31.861Z,21.04
2022-09-25T13:35:04.305Z,20.96
2022-09-25T13:37:34.790Z,20.98
2022-09-25T13:40:33.927Z,21.09
2022-09-25T13:43:21.668Z,21.15
2022-09-25T13:45:50.398Z,21.34
2022-09-25T13:48:37.669Z,21.34
2022-09-25T13:51:35.838Z,21.38
2022-09-25T13:54:24.350Z,21.41
2022-09-25T13:56:53.389Z,21.25
2022-09-25T13:59:38.977Z,21.21
2022-09-25T14:02:43.947Z,21.37
2022-09-25T14:05:18.186Z,21.58
2022-09-25T14:07:52.021Z,21.80
2022-09-25T14:10:20.560Z,21.93
2022-09-25T14:12:50.172Z,22.02
2022-09-25T14:15:25.086Z,21.94
2022-09-25T14:17:55.955Z,21.85
2022-09-25T14:20:43.231Z,21.74
2022-09-25T14:23:17.520Z,21.65
2022-09-25T14:25:47.105Z,21.43
2022-09-25T14:28:25.336Z,21.19
2022-09-25T14:31:10.149Z,21.10
2022-09-25T14:33:55.842Z,21.00
2022-09-25T14:36:35.648Z,20.96
2022-09-25T14:39:37.384Z,20.76
2022-09-25T14:42:25.532Z,20.68
2022-09-25T14:45:29.201Z,20.59
2022-09-25T14:48:01.099Z,20.48
2022-09-25T14:50:32.658Z,20.47
2022-09-25T14:53:04.849Z,20.47
2022-09-25T14:55:37.931Z,20.51
2022-09-25T14:58:10.303Z,20.52
2022-09-25T15:00:46.966Z,20.57
2022-09-25T15:03:16.621Z,20.64
2022-09-25T15:05:47.725Z,20.65
2022-09-25T15:08:22.603Z,20.51
2022-09-25T15:11:02.334Z,20.42
2022-09-25T15:13:33.702Z,20.46
2022-09-25T15:16:20.520Z,20.49
2022-09-25T15:18:59.189Z,20.44
2022-09-25T15:21:30.961Z,20.38
2022-09-25T15:24:03.187Z,20.27
2022-09-25T15:26:35.320Z,20.14
2022-09-25T15:29:03.301Z,20.16
2022-09-25T15:31:39.202Z,20.15
2022-09-25T15:34:13.748Z,20.11
2022-09-25T15:36:41.739Z,20.13
2022-09-25T15:39:17.058Z,20.09
2022-09-25T15:41:46.427Z,20.11
2022-09-25T15:44:19.063Z,20.08
2022-09-25T15:46:49.962Z,20.09
2022-09-25T15:49:21.101Z,19.98
2022-09-25T15:51:53.646Z,19.78
2022-09-25T15:54:31.706Z,19.73
2022-09-25T15:57:02.845Z,19.72
2022-09-25T15:59:34.820Z,19.76
2022-09-25T16:02:35.530Z,19.82
2022-09-25T16:05:03.892Z,19.81
2022-09-25T16:07:34.276Z,19.81
2022-09-25T16:10:05.455Z,19.76
2022-09-25T16:12:40.760Z,19.69
2022-09-25T16:15:44.786Z,19.64
2022-09-25T16:18:28.563Z,19.47
2022-09-25T16:21:08.650Z,19.47
2022-09-25T16:23:38.486Z,19.41
2022-09-25T16:26:19.765Z,19.38
2022-09-25T16:29:03.149Z,19.25
2022-09-25T16:31:32.732Z,19.26
2022-09-25T16:34:01.263Z,19.21
2022-09-25T16:36:38.120Z,19.14
2022-09-25T16:39:24.794Z,19.03
2022-09-25T16:41:53.206Z,18.96
2022-09-25T16:44:28.690Z,18.87
2022-09-25T16:47:14.371Z,18.73
2022-09-25T16:49:43.666Z,18.71
2022-09-25T16:52:20.573Z,18.66
2022-09-25T16:54:53.118Z,18.64
2022-09-25T16:57:22.538Z,18.64
2022-09-25T16:59:52.577Z,18.60
2022-09-25T17:02:32.888Z,18.55
2022-09-25T17:05:03.126Z,18.49
2022-09-25T17:07:31.000Z,18.39
2022-09-25T17:10:01.010Z,18.35
2022-09-25T17:12:31.886Z,18.24
2022-09-25T17:15:01.434Z,18.16
2022-09-25T17:17:31.002Z,18.04
2022-09-25T17:19:58.970Z,18.02
2022-09-25T17:22:30.306Z,18.01
2022-09-25T17:25:02.032Z,18.01
2022-09-25T17:27:29.775Z,18.04
2022-09-25T17:29:58.183Z,18.00
2022-09-25T17:32:29.322Z,18.04
2022-09-25T17:34:58.484Z,17.95
2022-09-25T17:37:26.383Z,17.93
2022-09-25T17:39:54.406Z,17.95
2022-09-25T17:42:22.529Z,17.99
2022-09-25T17:44:50.468Z,18.00
2022-09-25T17:47:18.514Z,18.03
2022-09-25T17:49:48.559Z,18.01
2022-09-25T17:52:21.965Z,18.02
2022-09-25T17:54:49.809Z,17.98
2022-09-25T17:57:17.794Z,17.98
2022-09-25T17:59:45.798Z,18.01
2022-09-25T18:02:37.416Z,18.02
2022-09-25T18:05:07.608Z,18.02
2022-09-25T18:07:35.653Z,18.01
2022-09-25T18:10:03.550Z,17.96
2022-09-25T18:12:31.334Z,17.93
2022-09-25T18:14:59.520Z,17.87
2022-09-25T18:17:27.445Z,17.82
2022-09-25T18:20:12.726Z,17.76
2022-09-25T18:22:41.971Z,17.68
2022-09-25T18:25:10.715Z,17.63
2022-09-25T18:27:41.850Z,17.56
2022-09-25T18:30:15.107Z,17.50
2022-09-25T18:32:44.318Z,17.45
2022-09-25T18:35:14.346Z,17.40
2022-09-25T18:37:44.338Z,17.35
2022-09-25T18:40:14.226Z,17.31
2022-09-25T18:42:42.262Z,17.25
2022-09-25T18:45:13.032Z,17.21
2022-09-25T18:47:42.374Z,17.16
2022-09-25T18:50:15.523Z,17.12
2022-09-25T18:52:47.449Z,17.09
2022-09-25T18:55:15.378Z,17.03
2022-09-25T18:57:43.787Z,17.00
2022-09-25T19:00:13.086Z,16.96
2022-09-25T19:02:42.499Z,16.89
2022-09-25T19:05:11.450Z,16.84
2022-09-25T19:07:39.660Z,16.78
2022-09-25T19:10:11.022Z,16.74
2022-09-25T19:12:38.860Z,16.66
2022-09-25T19:15:07.388Z,16.61
2022-09-25T19:17:36.819Z,16.56
2022-09-25T19:20:05.552Z,16.49
2022-09-25T19:22:33.766Z,16.45
2022-09-25T19:25:03.950Z,16.41
2022-09-25T19:27:33.478Z,16.35
2022-09-25T19:30:01.251Z,16.30
2022-09-25T19:32:29.199Z,16.24
2022-09-25T19:34:57.464Z,16.19
2022-09-25T19:37:29.692Z,16.15
2022-09-25T19:40:15.106Z,16.09
2022-09-25T19:42:44.821Z,16.04
2022-09-25T19:45:14.000Z,15.99
2022-09-25T19:47:41.834Z,15.93
2022-09-25T19:50:10.757Z,15.90
2022-09-25T19:52:38.664Z,15.87
2022-09-25T19:55:07.330Z,15.84
2022-09-25T19:57:35.138Z,15.79
2022-09-25T20:00:05.879Z,15.76
2022-09-25T20:02:33.789Z,15.74
2022-09-25T20:05:01.651Z,15.73
2022-09-25T20:07:29.604Z,15.72
2022-09-25T20:09:57.498Z,15.68
2022-09-25T20:12:25.478Z,15.67
2022-09-25T20:14:53.686Z,15.64
2022-09-25T20:17:22.869Z,15.63
2022-09-25T20:19:50.722Z,15.59
2022-09-25T20:22:18.506Z,15.56
2022-09-25T20:24:47.120Z,15.53
2022-09-25T20:27:15.699Z,15.50
2022-09-25T20:29:45.634Z,15.47
2022-09-25T20:32:13.545Z,15.45
2022-09-25T20:34:42.923Z,15.41
2022-09-25T20:37:10.928Z,15.38
2022-09-25T20:39:39.017Z,15.37
2022-09-25T20:42:08.954Z,15.33
2022-09-25T20:44:37.018Z,15.28
2022-09-25T20:47:04.816Z,15.23
2022-09-25T20:49:32.994Z,15.19
2022-09-25T20:52:02.517Z,15.13
2022-09-25T20:54:30.442Z,15.08
2022-09-25T20:56:58.413Z,15.04
2022-09-25T20:59:26.325Z,14.99
2022-09-25T21:01:54.209Z,14.91
2022-09-25T21:04:22.189Z,14.83
2022-09-25T21:06:50.161Z,14.77
2022-09-25T21:09:22.774Z,14.73
2022-09-25T21:11:50.865Z,14.70
2022-09-25T21:14:20.876Z,14.65
2022-09-25T21:16:49.980Z,14.61
2022-09-25T21:19:21.023Z,14.56
2022-09-25T21:21:49.541Z,14.54
2022-09-25T21:24:21.214Z,14.51
2022-09-25T21:26:49.770Z,14.48
2022-09-25T21:29:20.435Z,14.47
2022-09-25T21:31:50.681Z,14.43
2022-09-25T21:34:19.984Z,14.41
2022-09-25T21:36:48.494Z,14.37
2022-09-25T21:39:16.425Z,14.35
2022-09-25T21:41:45.736Z,14.32
2022-09-25T21:44:15.649Z,14.27
2022-09-25T21:46:44.181Z,14.24
2022-09-25T21:49:17.066Z,14.22
2022-09-25T21:51:46.089Z,14.17
2022-09-25T21:54:14.495Z,14.14
2022-09-25T21:56:43.273Z,14.13
2022-09-25T21:59:12.874Z,14.10
2022-09-25T22:01:41.603Z,14.04
2022-09-25T22:04:12.880Z,14.01
2022-09-25T22:06:43.174Z,14.00
2022-09-25T22:09:13.558Z,13.98
2022-09-25T22:11:42.611Z,13.97
2022-09-25T22:14:16.083Z,13.93
2022-09-25T22:16:45.342Z,13.89
2022-09-25T22:19:15.754Z,13.86
2022-09-25T22:21:47.877Z,13.84
2022-09-25T22:24:16.070Z,13.80
2022-09-25T22:26:47.218Z,13.78
2022-09-25T22:29:17.327Z,13.76
2022-09-25T22:31:45.541Z,13.72
2022-09-25T22:34:19.934Z,13.68
2022-09-25T22:36:47.826Z,13.65
2022-09-25T22:39:17.845Z,13.64
2022-09-25T22:41:46.203Z,13.62
2022-09-25T22:44:14.218Z,13.61
2022-09-25T22:46:43.376Z,13.59
2022-09-25T22:49:11.269Z,13.56
2022-09-25T22:51:39.713Z,13.48
2022-09-25T22:54:08.204Z,13.41
2022-09-25T22:56:36.931Z,13.33
2022-09-25T22:59:07.140Z,13.30
2022-09-25T23:01:37.851Z,13.31
2022-09-25T23:04:12.311Z,13.35
2022-09-25T23:06:40.164Z,13.39
2022-09-25T23:09:11.617Z,13.44
2022-09-25T23:11:39.636Z,13.45
2022-09-25T23:14:10.091Z,13.48
2022-09-25T23:16:38.401Z,13.50
2022-09-25T23:19:07.596Z,13.53
2022-09-25T23:21:35.424Z,13.53
2022-09-25T23:24:06.203Z,13.54
2022-09-25T23:26:35.409Z,13.47
2022-09-25T23:29:03.188Z,13.46
2022-09-25T23:31:31.974Z,13.43
2022-09-25T23:34:00.271Z,13.38
2022-09-25T23:36:30.240Z,13.38
2022-09-25T23:39:00.775Z,13.42
2022-09-25T23:41:31.179Z,13.43
2022-09-25T23:44:00.634Z,13.40
2022-09-25T23:46:31.374Z,13.43
2022-09-25T23:48:59.486Z,13.45
2022-09-25T23:51:27.380Z,13.49
2022-09-25T23:53:58.681Z,13.52
2022-09-25T23:56:28.589Z,13.54
2022-09-25T23:58:57.894Z,13.55
